Time;durP1;ratioP1;P1;durP2;ratioP2;P2;SDS_P1;SDS_P2;PMS_P1;PMS_P2;Temp;Humidity;BMP_temperature;BMP_pressure;BME280_temperature;BME280_humidity;BME280_pressure;Samples;Min_cycle;Max_cycle;Signal;HPM_P1;HPM_P2
2021/08/11 00:01:21;;;;;;;5.57;3.97;;;20.30;99.90;;;;;;5035656;28;20195;-57
2021/08/11 00:03:47;;;;;;;5.40;4.10;;;20.30;99.90;;;;;;5035136;28;20757;-56
2021/08/11 00:06:12;;;;;;;4.33;3.87;;;20.40;99.90;;;;;;5035578;28;20182;-57
2021/08/11 00:08:38;;;;;;;6.27;4.17;;;20.40;99.90;;;;;;5035728;28;20652;-57
2021/08/11 00:11:03;;;;;;;5.50;4.10;;;20.40;99.90;;;;;;5035935;28;20163;-57
2021/08/11 00:13:29;;;;;;;4.27;3.87;;;20.40;99.90;;;;;;5035128;28;20198;-56
2021/08/11 00:15:59;;;;;;;4.77;4.37;;;20.30;99.90;;;;;;5035192;28;20167;-56
2021/08/11 00:18:25;;;;;;;6.97;4.10;;;20.30;99.90;;;;;;5035393;28;20167;-57
2021/08/11 00:20:50;;;;;;;7.40;4.10;;;20.40;99.90;;;;;;5035231;28;20722;-57
2021/08/11 00:23:16;;;;;;;4.50;4.10;;;20.40;99.90;;;;;;5035270;28;20249;-57
2021/08/11 00:25:42;;;;;;;5.77;4.13;;;20.40;99.90;;;;;;5035006;28;20191;-57
2021/08/11 00:28:07;;;;;;;5.27;4.40;;;20.40;99.90;;;;;;5034623;28;20258;-57
2021/08/11 00:30:33;;;;;;;5.67;4.00;;;20.40;99.90;;;;;;5034977;28;20250;-57
2021/08/11 00:32:58;;;;;;;4.50;4.10;;;20.30;99.90;;;;;;5034668;28;20222;-57
2021/08/11 00:35:24;;;;;;;5.10;3.77;;;20.20;99.90;;;;;;5034777;28;20203;-57
2021/08/11 00:37:50;;;;;;;6.10;4.30;;;20.20;99.90;;;;;;5035490;28;20625;-57
2021/08/11 00:40:18;;;;;;;7.30;4.50;;;20.10;99.90;;;;;;5035115;28;20172;-57
2021/08/11 00:42:45;;;;;;;5.23;4.13;;;20.00;99.90;;;;;;5034647;28;20266;-57
2021/08/11 00:45:11;;;;;;;4.97;4.00;;;20.00;99.90;;;;;;5034503;28;20445;-57
2021/08/11 00:47:36;;;;;;;12.17;3.83;;;20.00;99.90;;;;;;5033484;28;20417;-56
2021/08/11 00:50:05;;;;;;;8.80;4.40;;;20.00;99.90;;;;;;5034584;28;20167;-57
2021/08/11 00:52:31;;;;;;;6.70;4.07;;;19.90;99.90;;;;;;5034468;28;20270;-57
2021/08/11 00:54:57;;;;;;;7.23;4.13;;;19.90;99.90;;;;;;5034930;28;20495;-57
2021/08/11 00:57:26;;;;;;;5.10;4.60;;;20.00;99.90;;;;;;5034674;28;20282;-57
2021/08/11 00:59:52;;;;;;;6.50;4.30;;;19.90;99.90;;;;;;5034198;28;20776;-56
2021/08/11 01:02:19;;;;;;;6.27;4.30;;;19.90;99.90;;;;;;5034084;28;20501;-57
2021/08/11 01:04:48;;;;;;;4.60;4.17;;;20.00;99.90;;;;;;5034786;28;20931;-56
2021/08/11 01:07:15;;;;;;;5.70;4.13;;;20.00;99.90;;;;;;5034527;28;20398;-57
2021/08/11 01:09:41;;;;;;;7.60;4.10;;;20.10;99.90;;;;;;5035221;28;20398;-57
2021/08/11 01:12:07;;;;;;;4.93;4.00;;;20.20;99.90;;;;;;5034190;28;20468;-57
2021/08/11 01:14:33;;;;;;;4.90;4.07;;;20.00;99.90;;;;;;5034319;28;20218;-57
2021/08/11 01:17:01;;;;;;;7.30;4.37;;;20.00;99.90;;;;;;5034526;28;20398;-56
2021/08/11 01:19:27;;;;;;;5.70;3.87;;;20.00;99.90;;;;;;5033700;28;20750;-55
2021/08/11 01:22:27;;;;;;;5.00;3.77;;;20.00;99.90;;;;;;5036575;28;20487;-56
2021/08/11 01:25:01;;;;;;;4.20;3.80;;;20.00;99.90;;;;;;5023473;28;20553;-56
2021/08/11 01:27:28;;;;;;;6.20;3.60;;;20.10;99.90;;;;;;5034246;28;20799;-57
2021/08/11 01:29:59;;;;;;;4.10;3.37;;;20.00;99.90;;;;;;5033926;28;20409;-57
2021/08/11 01:32:52;;;;;;;5.10;4.10;;;20.10;99.90;;;;;;5034183;28;20448;-58
2021/08/11 01:35:20;;;;;;;5.20;3.70;;;20.00;99.90;;;;;;5033897;28;20863;-56
2021/08/11 01:37:51;;;;;;;5.63;4.00;;;20.00;99.90;;;;;;5033684;28;20910;-56
2021/08/11 01:40:21;;;;;;;5.93;4.47;;;20.10;99.90;;;;;;5033717;28;20448;-56
2021/08/11 01:42:48;;;;;;;6.33;4.17;;;20.10;99.90;;;;;;5033615;28;20414;-56
2021/08/11 01:45:21;;;;;;;4.70;4.27;;;20.00;99.90;;;;;;5033430;28;20446;-57
2021/08/11 01:48:02;;;;;;;4.10;3.70;;;20.10;99.90;;;;;;5033436;28;20934;-57
2021/08/11 01:50:31;;;;;;;3.77;3.40;;;20.10;99.90;;;;;;5033722;28;20382;-57
2021/08/11 01:52:59;;;;;;;6.27;3.77;;;20.10;99.90;;;;;;5033600;28;20425;-57
2021/08/11 01:55:24;;;;;;;4.37;3.53;;;20.00;99.90;;;;;;5033438;28;20493;-57
2021/08/11 01:57:52;;;;;;;4.23;3.70;;;20.00;99.90;;;;;;5033789;28;20484;-57
2021/08/11 02:00:21;;;;;;;6.00;3.80;;;20.00;99.90;;;;;;5033640;28;20175;-57
2021/08/11 02:02:47;;;;;;;5.93;4.50;;;20.00;99.90;;;;;;5032983;28;20841;-57
2021/08/11 02:05:15;;;;;;;4.83;4.43;;;20.00;99.90;;;;;;5033582;28;20437;-57
2021/08/11 02:07:44;;;;;;;4.33;3.73;;;19.90;99.90;;;;;;5033414;28;20413;-57
2021/08/11 02:10:13;;;;;;;7.43;4.17;;;19.90;99.90;;;;;;5033154;28;20402;-57
2021/08/11 02:12:40;;;;;;;3.83;3.43;;;19.80;99.90;;;;;;5033087;28;20430;-57
2021/08/11 02:15:07;;;;;;;4.50;4.03;;;19.70;99.90;;;;;;5033082;28;20493;-56
2021/08/11 02:17:32;;;;;;;4.83;4.33;;;19.70;99.90;;;;;;5033488;28;20438;-57
2021/08/11 02:19:58;;;;;;;4.17;3.77;;;19.70;99.90;;;;;;5032984;28;20958;-57
2021/08/11 02:22:23;;;;;;;4.27;3.70;;;19.70;99.90;;;;;;5033657;28;20540;-55
2021/08/11 02:24:49;;;;;;;4.40;4.00;;;19.70;99.90;;;;;;5033636;28;20198;-57
2021/08/11 02:27:20;;;;;;;4.97;4.47;;;19.60;99.90;;;;;;5033643;28;20167;-57
2021/08/11 02:30:03;;;;;;;4.77;3.53;;;19.50;99.90;;;;;;5033135;28;20167;-57
2021/08/11 02:32:35;;;;;;;4.80;4.00;;;19.40;99.90;;;;;;5033231;28;20842;-56
2021/08/11 02:35:22;;;;;;;4.87;4.47;;;19.20;99.90;;;;;;5033141;28;20386;-56
2021/08/11 02:38:08;;;;;;;6.20;3.90;;;19.30;99.90;;;;;;5033283;28;20394;-57
2021/08/11 02:41:10;;;;;;;5.13;4.10;;;19.10;99.90;;;;;;5033593;28;20386;-57
2021/08/11 02:43:44;;;;;;;5.50;4.60;;;19.00;99.90;;;;;;5019839;28;20437;-57
2021/08/11 02:46:19;;;;;;;4.80;3.53;;;19.00;99.90;;;;;;5033224;28;20390;-57
2021/08/11 02:48:59;;;;;;;5.03;4.53;;;18.90;99.90;;;;;;5032925;28;20408;-57
2021/08/11 02:51:27;;;;;;;4.93;4.50;;;18.80;99.90;;;;;;5036748;28;20777;-57
2021/08/11 02:53:54;;;;;;;7.93;4.27;;;18.70;99.90;;;;;;5036746;28;20417;-56
2021/08/11 02:56:20;;;;;;;4.90;4.43;;;18.80;99.90;;;;;;5037112;28;20398;-57
2021/08/11 02:58:46;;;;;;;7.30;4.17;;;18.90;99.90;;;;;;5037004;28;20481;-56
2021/08/11 03:01:13;;;;;;;5.73;4.53;;;18.90;99.90;;;;;;5036469;28;20410;-57
2021/08/11 03:03:40;;;;;;;10.63;4.97;;;18.90;99.90;;;;;;5036084;28;20449;-57
2021/08/11 03:06:06;;;;;;;6.50;4.47;;;18.80;99.90;;;;;;5037139;28;20402;-57
2021/08/11 03:08:33;;;;;;;6.73;4.13;;;18.90;99.90;;;;;;5036952;28;20968;-57
2021/08/11 03:10:59;;;;;;;5.53;4.43;;;19.00;99.90;;;;;;5036535;28;20164;-55
2021/08/11 03:13:25;;;;;;;6.10;4.67;;;19.10;99.90;;;;;;5036353;28;20517;-53
2021/08/11 03:15:51;;;;;;;7.63;5.10;;;19.10;99.90;;;;;;5036763;28;20426;-54
2021/08/11 03:18:18;;;;;;;4.77;4.27;;;19.00;99.90;;;;;;5036314;28;20456;-55
2021/08/11 03:20:44;;;;;;;8.40;5.70;;;19.00;99.90;;;;;;5036346;28;20406;-56
2021/08/11 03:23:13;;;;;;;6.00;5.40;;;19.00;99.90;;;;;;5036126;28;20425;-53
2021/08/11 03:25:39;;;;;;;7.50;4.80;;;18.90;99.90;;;;;;5039140;28;20437;-56
2021/08/11 03:28:05;;;;;;;4.37;3.50;;;18.90;99.90;;;;;;5035183;28;20456;-55
2021/08/11 03:30:31;;;;;;;5.20;4.70;;;18.90;99.90;;;;;;5036098;28;20810;-57
2021/08/11 03:32:56;;;;;;;6.27;4.70;;;18.90;99.90;;;;;;5036351;28;20206;-54
2021/08/11 03:35:22;;;;;;;4.73;4.33;;;18.80;99.90;;;;;;5036800;28;20178;-52
2021/08/11 03:37:48;;;;;;;4.97;4.43;;;18.70;99.90;;;;;;5036278;28;20221;-55
2021/08/11 03:40:14;;;;;;;6.10;4.83;;;18.70;99.90;;;;;;5035303;28;20180;-56
2021/08/11 03:42:41;;;;;;;7.40;4.53;;;18.70;99.90;;;;;;5035864;28;20444;-56
2021/08/11 03:45:07;;;;;;;5.90;4.90;;;18.60;99.90;;;;;;5035719;28;20194;-56
2021/08/11 03:47:32;;;;;;;4.90;4.50;;;18.50;99.90;;;;;;5035980;28;20414;-56
2021/08/11 03:49:58;;;;;;;5.27;4.87;;;18.50;99.90;;;;;;5035961;28;20416;-57
2021/08/11 03:52:23;;;;;;;5.50;4.70;;;18.50;99.90;;;;;;5035743;28;20565;-57
2021/08/11 03:54:49;;;;;;;5.00;4.50;;;18.50;99.90;;;;;;5035940;28;20171;-57
2021/08/11 03:57:15;;;;;;;8.03;5.10;;;18.60;99.90;;;;;;5036246;28;20171;-57
2021/08/11 03:59:40;;;;;;;6.20;5.60;;;18.50;99.90;;;;;;5035203;28;20183;-57
2021/08/11 04:02:06;;;;;;;5.57;5.00;;;18.40;99.90;;;;;;5034968;28;20164;-56
2021/08/11 04:04:33;;;;;;;4.80;4.37;;;18.40;99.90;;;;;;5035495;28;20206;-56
2021/08/11 04:06:59;;;;;;;8.30;4.90;;;18.50;99.90;;;;;;5035790;28;20624;-57
2021/08/11 04:09:25;;;;;;;8.87;5.10;;;18.50;99.90;;;;;;5035757;28;20400;-57
2021/08/11 04:11:50;;;;;;;6.03;5.40;;;18.50;99.90;;;;;;5035497;28;20197;-57
2021/08/11 04:14:16;;;;;;;8.10;5.63;;;18.50;99.90;;;;;;5034991;28;20219;-56
2021/08/11 04:16:42;;;;;;;4.80;4.40;;;18.60;99.90;;;;;;5035230;28;20661;-57
2021/08/11 04:19:07;;;;;;;4.93;4.43;;;18.60;99.90;;;;;;5035199;28;20163;-55
2021/08/11 04:21:33;;;;;;;5.40;4.90;;;18.70;99.90;;;;;;5035280;28;20168;-57
2021/08/11 04:23:58;;;;;;;8.37;5.50;;;18.60;99.90;;;;;;5035015;28;20198;-57
2021/08/11 04:26:24;;;;;;;4.70;4.30;;;18.60;99.90;;;;;;5035125;28;20159;-57
2021/08/11 04:28:49;;;;;;;4.97;4.47;;;18.70;99.90;;;;;;5034590;28;20180;-57
2021/08/11 04:31:16;;;;;;;5.57;5.10;;;18.70;99.90;;;;;;5035403;28;20239;-57
2021/08/11 04:33:41;;;;;;;6.47;5.10;;;18.60;99.90;;;;;;5035080;28;20193;-55
2021/08/11 04:36:07;;;;;;;7.70;4.10;;;18.60;99.90;;;;;;5035224;28;20954;-57
2021/08/11 04:38:33;;;;;;;4.67;4.27;;;18.60;99.90;;;;;;5034976;28;20172;-57
2021/08/11 04:40:58;;;;;;;5.43;4.90;;;18.60;99.90;;;;;;5034973;28;20210;-56
2021/08/11 04:43:24;;;;;;;6.90;5.40;;;18.70;99.90;;;;;;5034043;28;20190;-57
2021/08/11 04:45:49;;;;;;;8.93;5.00;;;18.60;99.90;;;;;;5034195;28;20195;-57
2021/08/11 04:48:15;;;;;;;4.97;4.30;;;18.60;99.90;;;;;;5034680;28;20641;-56
2021/08/11 04:50:41;;;;;;;6.13;4.67;;;18.70;99.90;;;;;;5034700;28;20171;-57
2021/08/11 04:53:06;;;;;;;6.63;5.17;;;18.70;99.90;;;;;;5034766;28;20187;-57
2021/08/11 04:55:32;;;;;;;4.80;4.40;;;18.70;99.90;;;;;;5034750;28;20179;-55
2021/08/11 04:57:57;;;;;;;6.53;5.17;;;18.70;99.90;;;;;;5034602;28;20175;-57
2021/08/11 05:00:24;;;;;;;5.53;5.03;;;18.70;99.90;;;;;;5033878;28;20175;-56
2021/08/11 05:05:26;;;;;;;5.87;4.40;;;18.70;99.90;;;;;;5031315;28;20486;-54
2021/08/11 05:07:52;;;;;;;7.87;5.10;;;18.70;99.90;;;;;;5034329;28;20409;-57
2021/08/11 05:10:18;;;;;;;5.47;4.97;;;18.70;99.90;;;;;;5031686;28;20171;-57
2021/08/11 05:12:44;;;;;;;5.50;5.00;;;18.70;99.90;;;;;;5033914;28;20907;-56
2021/08/11 05:15:10;;;;;;;5.10;4.70;;;18.70;99.90;;;;;;5033517;28;20464;-57
2021/08/11 05:17:36;;;;;;;6.07;5.17;;;18.80;99.90;;;;;;5033994;28;20180;-56
2021/08/11 05:20:03;;;;;;;4.63;4.20;;;18.80;99.90;;;;;;5033187;28;20817;-50
2021/08/11 05:22:29;;;;;;;5.60;4.33;;;18.90;99.90;;;;;;5033906;28;20171;-57
2021/08/11 05:24:54;;;;;;;5.20;4.70;;;19.00;99.90;;;;;;5033480;28;20516;-56
2021/08/11 05:27:20;;;;;;;7.10;5.87;;;19.10;99.90;;;;;;5032086;28;20427;-57
2021/08/11 05:29:46;;;;;;;5.40;4.60;;;19.10;99.90;;;;;;5014026;28;20176;-57
2021/08/11 05:32:15;;;;;;;7.03;5.70;;;19.10;99.90;;;;;;4996146;28;20168;-54
2021/08/11 05:34:42;;;;;;;4.50;4.10;;;19.10;99.90;;;;;;5026234;28;20568;-54
2021/08/11 05:37:07;;;;;;;6.07;5.20;;;19.10;99.90;;;;;;5033425;28;20413;-53
2021/08/11 05:39:33;;;;;;;6.30;4.30;;;19.20;99.90;;;;;;5034514;28;20398;-54
2021/08/11 05:41:59;;;;;;;6.47;5.47;;;19.30;99.90;;;;;;5033342;28;20179;-52
2021/08/11 05:44:28;;;;;;;5.37;4.53;;;19.30;99.90;;;;;;5033131;28;20187;-55
2021/08/11 05:46:53;;;;;;;8.70;7.00;;;19.40;99.90;;;;;;5033349;28;20167;-52
2021/08/11 05:49:19;;;;;;;9.17;5.70;;;19.50;99.90;;;;;;5032976;28;20472;-53
2021/08/11 05:51:45;;;;;;;5.30;4.63;;;19.60;99.90;;;;;;5033512;28;20629;-55
2021/08/11 05:54:11;;;;;;;5.67;5.17;;;19.70;99.90;;;;;;5033672;28;20676;-55
2021/08/11 05:56:36;;;;;;;5.80;5.30;;;19.80;99.90;;;;;;5033069;28;20836;-51
2021/08/11 05:59:02;;;;;;;7.13;4.97;;;20.00;99.90;;;;;;5033166;28;20185;-54
2021/08/11 06:01:28;;;;;;;9.40;4.80;;;20.10;99.90;;;;;;5032924;28;20254;-55
2021/08/11 06:03:54;;;;;;;5.50;5.03;;;20.20;99.90;;;;;;5032385;28;20211;-54
2021/08/11 06:06:20;;;;;;;4.70;4.30;;;20.30;99.90;;;;;;5033416;28;20171;-54
2021/08/11 06:08:46;;;;;;;5.70;5.20;;;20.40;99.90;;;;;;5033524;28;20906;-55
2021/08/11 06:11:12;;;;;;;4.90;4.27;;;20.50;99.90;;;;;;5033266;28;20647;-56
2021/08/11 06:13:37;;;;;;;5.70;5.20;;;20.60;99.90;;;;;;5032924;28;20730;-53
2021/08/11 06:16:04;;;;;;;7.60;4.70;;;20.80;99.90;;;;;;5032890;28;20173;-56
2021/08/11 06:18:29;;;;;;;5.00;4.50;;;20.90;99.90;;;;;;5032512;28;20171;-53
2021/08/11 06:20:55;;;;;;;4.83;4.30;;;21.10;99.90;;;;;;5033191;28;20512;-53
2021/08/11 06:23:21;;;;;;;6.20;5.17;;;21.20;99.90;;;;;;5032855;28;20197;-54
2021/08/11 06:25:47;;;;;;;5.77;4.53;;;21.40;99.90;;;;;;5035399;28;20222;-56
2021/08/11 06:28:12;;;;;;;6.70;5.20;;;21.50;99.90;;;;;;5037039;28;20209;-55
2021/08/11 06:30:38;;;;;;;7.00;4.67;;;21.60;99.90;;;;;;5036889;28;20405;-50
2021/08/11 06:33:03;;;;;;;6.30;4.97;;;21.70;99.90;;;;;;5024876;28;20259;-52
2021/08/11 06:35:29;;;;;;;8.33;5.00;;;22.00;99.90;;;;;;5005042;28;20199;-51
2021/08/11 06:37:55;;;;;;;6.23;4.83;;;22.20;99.90;;;;;;5017016;28;20182;-49
2021/08/11 06:40:22;;;;;;;8.60;6.27;;;22.40;99.90;;;;;;5017295;28;20628;-51
2021/08/11 06:42:49;;;;;;;5.80;4.87;;;22.30;99.90;;;;;;5015203;28;20175;-59
2021/08/11 06:45:14;;;;;;;5.97;5.47;;;22.30;99.90;;;;;;5013974;28;20541;-50
2021/08/11 06:47:40;;;;;;;6.70;5.63;;;22.10;99.90;;;;;;5016660;28;20493;-55
2021/08/11 06:50:07;;;;;;;6.77;5.47;;;22.20;99.90;;;;;;4999188;28;20171;-51
2021/08/11 06:52:34;;;;;;;6.50;5.00;;;22.30;99.90;;;;;;5016960;28;20455;-55
2021/08/11 06:55:05;;;;;;;6.00;5.40;;;22.30;99.90;;;;;;5016827;28;20787;-51
2021/08/11 06:57:30;;;;;;;5.10;4.70;;;22.30;99.90;;;;;;5016582;28;20434;-49
2021/08/11 06:59:56;;;;;;;8.30;5.20;;;22.30;99.90;;;;;;5016649;28;20481;-49
2021/08/11 07:02:22;;;;;;;7.53;5.37;;;22.40;99.90;;;;;;5016682;28;20179;-49
2021/08/11 07:04:47;;;;;;;5.23;4.73;;;22.40;99.90;;;;;;5029483;28;20688;-48
2021/08/11 07:07:13;;;;;;;5.33;4.73;;;22.50;99.90;;;;;;5036430;28;20164;-48
2021/08/11 07:09:38;;;;;;;5.50;4.47;;;22.60;99.90;;;;;;5036760;28;20171;-50
2021/08/11 07:12:05;;;;;;;4.97;4.47;;;22.80;99.90;;;;;;5036176;28;20159;-51
2021/08/11 07:14:31;;;;;;;5.70;5.20;;;22.90;99.90;;;;;;5033252;28;20200;-58
2021/08/11 07:16:56;;;;;;;6.05;4.80;;;23.00;99.90;;;;;;5009791;28;20424;-51
2021/08/11 07:19:22;;;;;;;4.93;4.30;;;23.10;99.90;;;;;;5015207;28;20645;-49
2021/08/11 07:21:47;;;;;;;6.70;4.40;;;23.20;99.90;;;;;;5015587;28;20172;-53
2021/08/11 07:24:13;;;;;;;6.57;5.10;;;23.40;99.90;;;;;;5015567;28;20719;-51
2021/08/11 07:26:39;;;;;;;7.97;4.80;;;23.50;99.90;;;;;;5016625;28;20568;-54
2021/08/11 07:29:04;;;;;;;6.87;4.93;;;23.50;99.90;;;;;;5016120;28;20211;-51
2021/08/11 07:31:30;;;;;;;6.77;4.97;;;23.60;99.90;;;;;;5016344;28;20175;-51
2021/08/11 07:33:56;;;;;;;8.10;5.50;;;23.70;99.90;;;;;;5022249;28;20191;-52
2021/08/11 07:36:22;;;;;;;7.63;4.23;;;23.50;99.90;;;;;;5021367;28;20259;-51
2021/08/11 07:38:47;;;;;;;5.30;3.80;;;23.40;99.90;;;;;;5016013;28;20168;-52
2021/08/11 07:41:13;;;;;;;9.27;4.50;;;23.40;99.90;;;;;;5015727;28;20165;-52
2021/08/11 07:43:39;;;;;;;5.70;5.10;;;23.20;99.90;;;;;;5015953;28;20272;-52
2021/08/11 07:46:04;;;;;;;4.90;4.40;;;23.00;99.90;;;;;;5016299;28;20196;-50
2021/08/11 07:48:30;;;;;;;5.47;4.70;;;23.30;99.90;;;;;;5015943;28;20183;-54
2021/08/11 07:50:57;;;;;;;4.57;4.03;;;23.60;99.90;;;;;;5015603;28;20621;-51
2021/08/11 07:53:22;;;;;;;6.20;4.93;;;23.70;99.90;;;;;;5015069;28;20431;-51
2021/08/11 07:55:48;;;;;;;6.80;4.57;;;24.00;99.90;;;;;;5015822;28;20207;-51
2021/08/11 07:58:14;;;;;;;6.70;4.60;;;24.10;99.90;;;;;;5015486;28;20172;-52
2021/08/11 08:00:39;;;;;;;7.20;4.40;;;24.10;99.90;;;;;;5015534;28;20362;-53
2021/08/11 08:03:05;;;;;;;5.77;4.80;;;23.90;99.90;;;;;;5015442;28;20179;-55
2021/08/11 08:05:31;;;;;;;5.27;4.30;;;23.90;99.90;;;;;;5034337;28;20207;-51
2021/08/11 08:07:56;;;;;;;4.60;4.20;;;24.00;99.90;;;;;;5035741;28;20167;-49
2021/08/11 08:10:22;;;;;;;6.70;4.73;;;24.10;99.90;;;;;;5034996;28;20565;-51
2021/08/11 08:12:48;;;;;;;5.70;4.93;;;24.20;99.90;;;;;;5035001;28;20178;-49
2021/08/11 08:15:15;;;;;;;4.67;4.27;;;24.30;99.90;;;;;;5035163;28;20195;-52
2021/08/11 08:17:42;;;;;;;5.03;4.60;;;24.40;99.90;;;;;;5035551;28;20414;-54
2021/08/11 08:20:08;;;;;;;5.47;4.23;;;24.50;99.90;;;;;;5026109;28;20423;-55
2021/08/11 08:22:34;;;;;;;4.90;4.30;;;24.60;99.90;;;;;;5014636;28;20432;-52
2021/08/11 08:25:00;;;;;;;5.53;4.03;;;24.70;99.90;;;;;;5015143;28;20584;-56
2021/08/11 08:27:27;;;;;;;5.87;4.57;;;24.80;99.90;;;;;;5015065;28;20238;-56
2021/08/11 08:29:53;;;;;;;5.67;4.63;;;24.80;99.90;;;;;;5021545;28;20194;-56
2021/08/11 08:32:19;;;;;;;5.57;3.67;;;25.10;99.90;;;;;;5034887;28;20407;-56
2021/08/11 08:34:45;;;;;;;5.70;4.47;;;25.10;99.90;;;;;;5034637;28;20861;-57
2021/08/11 08:37:11;;;;;;;4.27;3.87;;;25.30;99.90;;;;;;5030395;28;20190;-57
2021/08/11 08:39:36;;;;;;;4.90;4.20;;;25.10;99.90;;;;;;5014883;28;20983;-53
2021/08/11 08:42:03;;;;;;;4.97;4.17;;;25.30;99.90;;;;;;5014872;28;20168;-52
2021/08/11 08:44:30;;;;;;;5.87;4.67;;;25.20;99.90;;;;;;5014301;28;20684;-56
2021/08/11 08:46:56;;;;;;;6.53;4.20;;;25.40;99.90;;;;;;5014821;28;20403;-55
2021/08/11 08:49:23;;;;;;;5.63;4.93;;;25.40;99.90;;;;;;5014613;28;20419;-56
2021/08/11 08:51:49;;;;;;;4.40;4.00;;;25.40;99.90;;;;;;5011683;28;20423;-57
2021/08/11 08:54:27;;;;;;;6.77;4.00;;;25.60;99.90;;;;;;5014648;28;20434;-55
2021/08/11 08:56:52;;;;;;;5.03;4.60;;;25.40;99.90;;;;;;5014732;28;20387;-55
2021/08/11 08:59:18;;;;;;;4.83;4.20;;;25.20;99.90;;;;;;5017559;28;20421;-56
2021/08/11 09:01:44;;;;;;;4.80;4.40;;;25.20;99.90;;;;;;5034027;28;20254;-56
2021/08/11 09:04:09;;;;;;;4.80;4.40;;;25.20;99.90;;;;;;5033987;28;20215;-57
2021/08/11 09:06:36;;;;;;;4.73;4.03;;;25.50;99.90;;;;;;5034400;28;20175;-56
2021/08/11 09:09:04;;;;;;;8.77;5.10;;;25.40;99.90;;;;;;5034083;28;20262;-57
2021/08/11 09:11:29;;;;;;;5.80;4.40;;;25.40;99.90;;;;;;5034394;28;20448;-56
2021/08/11 09:14:23;;;;;;;5.33;4.70;;;25.70;99.90;;;;;;5034404;28;20799;-55
2021/08/11 09:16:59;;;;;;;7.53;4.50;;;25.90;99.90;;;;;;5026887;28;20210;-56
2021/08/11 09:19:35;;;;;;;5.03;4.50;;;25.70;99.90;;;;;;5034250;28;20394;-56
2021/08/11 09:22:06;;;;;;;5.10;4.07;;;25.50;99.90;;;;;;5034074;28;20875;-56
2021/08/11 09:24:34;;;;;;;4.30;3.87;;;25.70;99.90;;;;;;5033726;28;20453;-52
2021/08/11 09:27:20;;;;;;;5.40;4.37;;;25.80;99.90;;;;;;5033979;28;20777;-54
2021/08/11 09:30:05;;;;;;;7.23;4.10;;;25.80;99.90;;;;;;5033318;28;20509;-56
2021/08/11 09:32:31;;;;;;;5.00;4.50;;;26.00;99.90;;;;;;5034353;28;20916;-56
2021/08/11 09:34:57;;;;;;;5.10;3.90;;;26.00;99.90;;;;;;5033764;28;20437;-57
2021/08/11 09:37:43;;;;;;;4.80;4.27;;;26.30;99.90;;;;;;5029067;28;20438;-57
2021/08/11 09:40:16;;;;;;;8.97;4.53;;;26.40;99.90;;;;;;5013605;28;20184;-56
2021/08/11 09:42:43;;;;;;;3.90;3.60;;;26.60;99.90;;;;;;5014020;28;20428;-57
2021/08/11 09:45:10;;;;;;;6.80;4.30;;;26.80;99.90;;;;;;5013262;28;20545;-56
2021/08/11 09:47:37;;;;;;;5.70;3.90;;;26.90;99.90;;;;;;5013799;28;20489;-57
2021/08/11 09:50:09;;;;;;;4.60;4.13;;;26.90;99.90;;;;;;5013582;28;20414;-52
2021/08/11 09:52:49;;;;;;;4.43;4.13;;;26.90;99.90;;;;;;5013799;28;20403;-57
2021/08/11 09:55:16;;;;;;;4.10;3.70;;;27.20;99.90;;;;;;5013769;28;20504;-57
2021/08/11 09:57:42;;;;;;;6.73;4.20;;;27.20;99.90;;;;;;4996382;28;20446;-57
2021/08/11 10:00:13;;;;;;;4.80;4.10;;;27.40;99.90;;;;;;5022950;28;20426;-55
2021/08/11 10:02:38;;;;;;;4.00;3.50;;;27.80;99.90;;;;;;5033520;28;20410;-57
2021/08/11 10:05:04;;;;;;;3.87;3.47;;;27.90;99.90;;;;;;5032881;28;20519;-57
2021/08/11 10:07:31;;;;;;;4.33;3.87;;;28.00;99.90;;;;;;5033264;28;20171;-55
2021/08/11 10:10:02;;;;;;;5.20;4.20;;;27.80;99.90;;;;;;5033312;28;20259;-56
2021/08/11 10:12:29;;;;;;;4.27;3.73;;;28.20;99.90;;;;;;5032964;28;20420;-56
2021/08/11 10:14:57;;;;;;;8.07;3.83;;;28.30;99.40;;;;;;5032712;28;20426;-57
2021/08/11 10:17:27;;;;;;;4.00;3.63;;;28.40;99.20;;;;;;5033171;28;20500;-54
2021/08/11 10:19:53;;;;;;;4.60;4.20;;;28.60;98.60;;;;;;5033258;28;20394;-52
2021/08/11 10:22:21;;;;;;;4.97;4.57;;;28.70;98.90;;;;;;5033621;28;20441;-56
2021/08/11 10:24:50;;;;;;;4.90;4.50;;;28.70;98.80;;;;;;5032511;28;20203;-57
2021/08/11 10:27:17;;;;;;;4.43;4.07;;;28.70;99.10;;;;;;5033228;28;20410;-55
2021/08/11 10:29:44;;;;;;;4.00;3.53;;;28.80;99.00;;;;;;5032560;28;20915;-58
2021/08/11 10:32:10;;;;;;;6.40;3.97;;;28.60;98.70;;;;;;5033136;28;20434;-55
2021/08/11 10:34:37;;;;;;;5.13;4.47;;;28.20;98.70;;;;;;5032865;28;20793;-54
2021/08/11 10:37:03;;;;;;;4.37;3.97;;;28.30;99.90;;;;;;5032721;28;20481;-57
2021/08/11 10:39:30;;;;;;;6.20;3.87;;;28.30;99.10;;;;;;5032857;28;20961;-57
2021/08/11 10:42:01;;;;;;;4.60;4.10;;;28.50;98.60;;;;;;5033129;28;20501;-54
2021/08/11 10:44:28;;;;;;;4.10;3.60;;;28.70;98.40;;;;;;5032940;28;20462;-57
2021/08/11 10:47:02;;;;;;;5.07;4.57;;;28.50;99.00;;;;;;5015739;28;20489;-57
2021/08/11 10:49:29;;;;;;;7.30;4.90;;;28.10;99.70;;;;;;5013226;28;20498;-57
2021/08/11 10:52:14;;;;;;;5.57;5.07;;;28.00;99.60;;;;;;5013132;28;20406;-57
2021/08/11 10:54:55;;;;;;;4.80;4.03;;;27.70;99.90;;;;;;5012949;28;20429;-57
2021/08/11 10:57:40;;;;;;;4.67;4.27;;;27.70;99.90;;;;;;5012985;28;20411;-58
2021/08/11 11:00:21;;;;;;;4.33;4.03;;;27.50;99.90;;;;;;5021765;28;20475;-58
2021/08/11 11:02:52;;;;;;;5.37;4.03;;;27.30;99.90;;;;;;5032749;28;20508;-53
2021/08/11 11:05:20;;;;;;;4.77;4.20;;;27.30;99.90;;;;;;5068532;23;21012;-55
2021/08/11 11:08:05;;;;;;;10.50;4.60;;;27.50;99.90;;;;;;5052675;28;20408;-56
2021/08/11 11:10:31;;;;;;;4.43;4.13;;;28.40;99.90;;;;;;5052875;28;20878;-56
2021/08/11 11:12:56;;;;;;;4.63;4.17;;;29.00;98.90;;;;;;5055614;28;20397;-57
2021/08/11 11:15:40;;;;;;;4.30;3.90;;;28.90;98.10;;;;;;5056443;28;20413;-56
2021/08/11 11:18:20;;;;;;;4.23;3.93;;;29.20;98.00;;;;;;5056433;28;20166;-56
2021/08/11 11:21:10;;;;;;;4.77;3.90;;;30.80;95.90;;;;;;5055784;28;20369;-57
2021/08/11 11:23:38;;;;;;;5.70;3.97;;;32.80;94.40;;;;;;5043831;28;20444;-57
2021/08/11 11:26:15;;;;;;;4.30;3.90;;;34.50;90.00;;;;;;5056327;28;20444;-57
2021/08/11 11:28:58;;;;;;;3.77;3.47;;;35.60;84.00;;;;;;5056419;28;20389;-58
2021/08/11 11:31:40;;;;;;;5.43;4.07;;;37.00;77.90;;;;;;5038127;28;20784;-58
2021/08/11 11:34:25;;;;;;;6.27;4.47;;;37.50;72.10;;;;;;5038249;28;20425;-57
2021/08/11 11:37:00;;;;;;;6.70;4.17;;;37.40;70.70;;;;;;5056274;28;20405;-58
2021/08/11 11:39:30;;;;;;;3.43;3.13;;;36.80;69.80;;;;;;5055899;28;20436;-58
2021/08/11 11:45:07;;;;;;;4.93;4.07;;;36.50;68.70;;;;;;5018478;28;20454;-58
2021/08/11 11:47:37;;;;;;;4.60;4.20;;;35.70;72.70;;;;;;5036228;28;20391;-57
2021/08/11 11:50:18;;;;;;;7.97;5.17;;;33.80;77.50;;;;;;5035576;28;20413;-58
2021/08/11 11:52:57;;;;;;;6.60;4.20;;;31.10;85.40;;;;;;5036173;28;20968;-57
2021/08/11 11:55:31;;;;;;;5.20;4.60;;;29.90;90.20;;;;;;5035557;28;20422;-58
2021/08/11 11:58:00;;;;;;;5.87;4.37;;;29.20;91.40;;;;;;5035850;28;20436;-58
2021/08/11 12:00:25;;;;;;;5.20;4.63;;;29.30;91.70;;;;;;5035957;28;20417;-57
2021/08/11 12:02:52;;;;;;;5.13;4.07;;;30.20;91.00;;;;;;5035472;28;20903;-56
2021/08/11 12:05:19;;;;;;;4.80;4.40;;;30.60;90.00;;;;;;5048427;28;20562;-55
2021/08/11 12:07:45;;;;;;;6.27;3.97;;;30.90;88.50;;;;;;5055522;28;20766;-56
2021/08/11 12:10:27;;;;;;;4.70;4.30;;;31.40;87.40;;;;;;5055807;28;20400;-56
2021/08/11 12:13:04;;;;;;;5.57;4.40;;;32.50;85.20;;;;;;5055405;28;20166;-56
2021/08/11 12:15:32;;;;;;;6.27;3.93;;;34.70;79.50;;;;;;5055255;28;20429;-57
2021/08/11 12:18:00;;;;;;;4.47;4.07;;;36.70;76.40;;;;;;5055626;28;20518;-58
2021/08/11 12:20:33;;;;;;;4.27;3.90;;;36.90;72.00;;;;;;5054919;28;20397;-58
2021/08/11 12:23:20;;;;;;;4.60;4.10;;;36.50;73.90;;;;;;5054830;28;20398;-58
2021/08/11 12:25:57;;;;;;;4.40;4.10;;;35.50;72.80;;;;;;5054433;28;20468;-58
2021/08/11 12:28:25;;;;;;;5.60;4.23;;;33.70;77.70;;;;;;5055500;28;20462;-58
2021/08/11 12:30:58;;;;;;;4.93;3.90;;;32.00;82.10;;;;;;5044427;28;20421;-58
2021/08/11 12:33:26;;;;;;;7.80;4.07;;;31.80;83.10;;;;;;5034970;28;20424;-58
2021/08/11 12:35:53;;;;;;;4.83;3.90;;;32.50;82.50;;;;;;5052699;28;20445;-58
2021/08/11 12:38:56;;;;;;;3.80;3.50;;;33.30;80.30;;;;;;5055908;28;20411;-58
2021/08/11 12:41:24;;;;;;;3.93;3.60;;;34.50;80.00;;;;;;5042172;28;20555;-56
2021/08/11 12:43:56;;;;;;;4.90;3.87;;;34.70;76.00;;;;;;5055194;28;20405;-58
2021/08/11 12:46:43;;;;;;;6.23;4.57;;;35.30;74.50;;;;;;5055024;28;20444;-58
2021/08/11 12:49:16;;;;;;;4.37;4.00;;;34.40;75.10;;;;;;5054074;28;20404;-58
2021/08/11 12:51:42;;;;;;;4.00;3.50;;;33.40;78.50;;;;;;5054471;28;20397;-58
2021/08/11 12:54:07;;;;;;;4.90;4.40;;;32.20;81.80;;;;;;5054690;28;20420;-58
2021/08/11 12:56:52;;;;;;;4.40;3.67;;;32.20;84.90;;;;;;5054476;28;20420;-58
2021/08/11 12:59:17;;;;;;;6.03;3.50;;;32.60;80.80;;;;;;5055023;28;20147;-59